createdAt,value
2017-01-01T00:00:00.986Z,22.12
2017-01-01T00:00:41.572Z,22.12
2017-01-01T00:01:22.160Z,22.12
2017-01-01T00:02:02.750Z,22.15
2017-01-01T00:02:43.344Z,22.12
2017-01-01T00:03:23.942Z,22.12
2017-01-01T00:04:04.521Z,22.1
2017-01-01T00:04:45.096Z,22.12
2017-01-01T00:05:25.683Z,22.17
2017-01-01T00:06:06.260Z,22.1
2017-01-01T00:06:46.862Z,22.12
2017-01-01T00:07:27.450Z,22.14
2017-01-01T00:08:08.030Z,22.1
2017-01-01T00:08:48.626Z,22.09
2017-01-01T00:09:29.218Z,22.1
2017-01-01T00:10:09.827Z,22.17
2017-01-01T00:10:50.440Z,22.14
2017-01-01T00:11:31.021Z,22.1
2017-01-01T00:12:11.620Z,22.17
2017-01-01T00:12:52.208Z,22.07
2017-01-01T00:13:32.801Z,22.1
2017-01-01T00:14:13.412Z,22.03
2017-01-01T00:14:53.999Z,22.14
2017-01-01T00:15:34.592Z,22.14
2017-01-01T00:16:15.182Z,22.1
2017-01-01T00:16:55.776Z,22.1
2017-01-01T00:17:36.353Z,22.14
2017-01-01T00:18:16.944Z,22.12
2017-01-01T00:18:57.540Z,22.1
2017-01-01T00:19:38.162Z,22.12
2017-01-01T00:20:18.768Z,22.17
2017-01-01T00:20:59.364Z,22.15
2017-01-01T00:21:39.960Z,22.12
2017-01-01T00:22:20.570Z,22.12
2017-01-01T00:23:01.165Z,22.07
2017-01-01T00:23:41.798Z,22.1
2017-01-01T00:24:22.377Z,22.12
2017-01-01T00:25:02.973Z,22.14
2017-01-01T00:25:43.571Z,22.09
2017-01-01T00:26:24.181Z,22.1
2017-01-01T00:27:04.807Z,22.12
2017-01-01T00:27:45.395Z,22.1
2017-01-01T00:28:25.993Z,22.05
2017-01-01T00:29:06.586Z,22.09
2017-01-01T00:29:47.179Z,22.15
2017-01-01T00:30:27.785Z,22.12
2017-01-01T00:31:08.383Z,22.1
2017-01-01T00:31:49.001Z,22.1
2017-01-01T00:32:29.611Z,22.09
2017-01-01T00:33:10.198Z,22.1
2017-01-01T00:33:50.807Z,22.14
2017-01-01T00:34:31.404Z,22.05
2017-01-01T00:35:12.008Z,22.14
2017-01-01T00:35:52.601Z,22.12
2017-01-01T00:36:33.173Z,22.1
2017-01-01T00:37:13.773Z,22.14
2017-01-01T00:37:54.360Z,22.1
2017-01-01T00:38:34.935Z,22.15
2017-01-01T00:39:15.570Z,22.14
2017-01-01T00:39:56.156Z,22.02
2017-01-01T00:40:36.768Z,22.1
2017-01-01T00:41:17.356Z,22.1
2017-01-01T00:41:57.944Z,22.1
2017-01-01T00:42:38.538Z,22.1
2017-01-01T00:43:19.126Z,22.07
2017-01-01T00:43:59.760Z,22.09
2017-01-01T00:44:40.376Z,22.07
2017-01-01T00:45:20.967Z,22.15
2017-01-01T00:46:01.558Z,22.06
2017-01-01T00:46:42.170Z,22.1
2017-01-01T00:47:22.767Z,22.12
2017-01-01T00:48:03.372Z,22.12
2017-01-01T00:48:43.959Z,22.07
2017-01-01T00:49:24.540Z,22.1
2017-01-01T00:50:05.135Z,22.1
2017-01-01T00:50:45.748Z,22.09
2017-01-01T00:51:26.332Z,22.1
2017-01-01T00:52:06.936Z,22.1
2017-01-01T00:52:47.542Z,21.99
2017-01-01T00:53:28.138Z,22.1
2017-01-01T00:54:08.722Z,22.07
2017-01-01T00:54:49.328Z,22.05
2017-01-01T00:55:29.910Z,22.06
2017-01-01T00:56:10.505Z,22.05
2017-01-01T00:56:51.095Z,22.1
2017-01-01T00:57:31.678Z,22.05
2017-01-01T00:58:12.265Z,22.12
2017-01-01T00:58:52.851Z,22.05
2017-01-01T00:59:33.433Z,22.07
2017-01-01T01:00:14.028Z,22.09
2017-01-01T01:00:54.613Z,22.09
2017-01-01T01:01:35.196Z,22.05
2017-01-01T01:02:15.788Z,22.06
2017-01-01T01:02:56.387Z,22.09
2017-01-01T01:03:36.983Z,22.06
2017-01-01T01:04:17.575Z,22.07
2017-01-01T01:04:58.169Z,22.05
2017-01-01T01:05:38.747Z,22.12
2017-01-01T01:06:19.349Z,22.05
2017-01-01T01:06:59.950Z,22.06
2017-01-01T01:07:40.529Z,22.1
2017-01-01T01:08:21.108Z,22.07
2017-01-01T01:09:01.702Z,22.1
2017-01-01T01:09:42.279Z,22.1
2017-01-01T01:10:22.860Z,22
2017-01-01T01:11:03.443Z,22.06
2017-01-01T01:11:44.035Z,22.06
2017-01-01T01:12:24.619Z,22.03
2017-01-01T01:13:05.222Z,22.07
2017-01-01T01:13:45.801Z,22.09
2017-01-01T01:14:26.382Z,22.02
2017-01-01T01:15:06.964Z,22.03
2017-01-01T01:15:47.556Z,22.12
2017-01-01T01:16:28.143Z,22.1
2017-01-01T01:17:08.724Z,22.03
2017-01-01T01:17:49.315Z,22.07
2017-01-01T01:18:29.893Z,22.05
2017-01-01T01:19:10.488Z,22.02
2017-01-01T01:19:51.066Z,22.12
2017-01-01T01:20:31.649Z,22.1
2017-01-01T01:21:12.247Z,21.99
2017-01-01T01:21:52.816Z,22.09
2017-01-01T01:22:33.409Z,22.07
2017-01-01T01:23:14.021Z,22.05
2017-01-01T01:23:54.609Z,22.03
2017-01-01T01:24:35.186Z,22
2017-01-01T01:25:15.778Z,22.03
2017-01-01T01:25:56.362Z,21.99
2017-01-01T01:26:36.953Z,22.05
2017-01-01T01:27:17.535Z,22.07
2017-01-01T01:27:58.137Z,22.12
2017-01-01T01:28:38.730Z,22.09
2017-01-01T01:29:19.313Z,22.05
2017-01-01T01:29:59.903Z,22.06
2017-01-01T01:30:40.503Z,22.1
2017-01-01T01:31:21.113Z,21.96
2017-01-01T01:32:01.722Z,22.07
2017-01-01T01:32:42.327Z,22.02
2017-01-01T01:33:22.935Z,22.09
2017-01-01T01:34:03.514Z,22.05
2017-01-01T01:34:44.118Z,22.03
2017-01-01T01:35:24.710Z,22.07
2017-01-01T01:36:05.316Z,22.02
2017-01-01T01:36:45.903Z,22.1
2017-01-01T01:37:26.487Z,22.1
2017-01-01T01:38:07.078Z,22
2017-01-01T01:38:47.667Z,22.1
2017-01-01T01:39:28.271Z,22.09
2017-01-01T01:40:08.884Z,22.06
2017-01-01T01:40:49.484Z,22.1
2017-01-01T01:41:30.072Z,22.05
2017-01-01T01:42:10.657Z,22.02
2017-01-01T01:42:51.241Z,22.06
2017-01-01T01:43:31.847Z,22.03
2017-01-01T01:44:12.442Z,22.05
2017-01-01T01:44:53.023Z,22.03
2017-01-01T01:45:33.602Z,22.09
2017-01-01T01:46:14.200Z,22.06
2017-01-01T01:46:54.800Z,22.06
2017-01-01T01:47:35.381Z,21.96
2017-01-01T01:48:15.970Z,22.09
2017-01-01T01:48:56.560Z,22
2017-01-01T01:49:37.152Z,22.03
2017-01-01T01:50:17.748Z,22.02
2017-01-01T01:50:58.342Z,21.91
2017-01-01T01:51:38.948Z,22.07
2017-01-01T01:52:19.533Z,22.07
2017-01-01T01:53:00.131Z,21.91
2017-01-01T01:53:40.717Z,21.91
2017-01-01T01:54:21.317Z,22.06
2017-01-01T01:55:01.920Z,22.05
2017-01-01T01:55:42.522Z,22.03
2017-01-01T01:56:23.105Z,21.91
2017-01-01T01:57:03.689Z,21.94
2017-01-01T01:57:44.293Z,22
2017-01-01T01:58:24.883Z,21.98
2017-01-01T01:59:05.474Z,21.99
2017-01-01T01:59:46.066Z,22.05
2017-01-01T02:00:26.646Z,22.02
2017-01-01T02:01:07.231Z,22.03
2017-01-01T02:01:47.812Z,22.07
2017-01-01T02:02:28.393Z,21.91
2017-01-01T02:03:08.989Z,22.09
2017-01-01T02:03:49.584Z,22.07
2017-01-01T02:04:30.189Z,21.9
2017-01-01T02:05:10.775Z,22.03
2017-01-01T02:05:51.382Z,21.98
2017-01-01T02:06:31.983Z,21.99
2017-01-01T02:07:12.561Z,22.09
2017-01-01T02:07:53.154Z,21.99
2017-01-01T02:08:33.761Z,22.05
2017-01-01T02:09:14.361Z,22.07
2017-01-01T02:09:54.949Z,22.05
2017-01-01T02:10:35.546Z,22
2017-01-01T02:11:16.136Z,22
2017-01-01T02:11:56.717Z,21.98
2017-01-01T02:12:37.306Z,21.99
2017-01-01T02:13:17.911Z,21.92
2017-01-01T02:13:58.493Z,21.94
2017-01-01T02:14:39.076Z,21.99
2017-01-01T02:15:19.666Z,21.96
2017-01-01T02:16:00.279Z,21.94
2017-01-01T02:16:40.849Z,21.94
2017-01-01T02:17:21.442Z,21.9
2017-01-01T02:18:02.057Z,22.03
2017-01-01T02:18:42.638Z,22
2017-01-01T02:19:23.227Z,21.96
2017-01-01T02:20:03.815Z,21.98
2017-01-01T02:20:44.415Z,21.92
2017-01-01T02:21:25.017Z,21.98
2017-01-01T02:22:05.612Z,21.98
2017-01-01T02:22:46.706Z,22.06
2017-01-01T02:23:27.295Z,22.09
2017-01-01T02:24:07.884Z,21.98
2017-01-01T02:24:48.475Z,21.92
2017-01-01T02:25:29.076Z,21.94
2017-01-01T02:26:09.660Z,21.96
2017-01-01T02:26:50.245Z,22
2017-01-01T02:27:30.829Z,21.94
2017-01-01T02:28:11.406Z,21.96
2017-01-01T02:28:52.002Z,21.92
2017-01-01T02:29:32.583Z,21.99
2017-01-01T02:30:13.165Z,21.99
2017-01-01T02:30:53.754Z,21.92
2017-01-01T02:31:34.361Z,21.98
2017-01-01T02:32:14.962Z,22.02
2017-01-01T02:32:55.554Z,21.92
2017-01-01T02:33:36.147Z,21.96
2017-01-01T02:34:16.732Z,21.98
2017-01-01T02:34:57.315Z,21.9
2017-01-01T02:35:37.897Z,21.92
2017-01-01T02:36:18.478Z,21.98
2017-01-01T02:36:59.056Z,22.02
2017-01-01T02:37:39.647Z,22
2017-01-01T02:38:20.252Z,21.98
2017-01-01T02:39:00.839Z,21.96
2017-01-01T02:39:41.424Z,22.05
2017-01-01T02:40:22.019Z,22.05
2017-01-01T02:41:02.625Z,21.99
2017-01-01T02:41:43.219Z,21.94
2017-01-01T02:42:23.803Z,21.99
2017-01-01T02:43:04.400Z,21.98
2017-01-01T02:43:44.992Z,21.92
2017-01-01T02:44:25.570Z,21.94
2017-01-01T02:45:06.165Z,22.02
2017-01-01T02:45:46.753Z,21.99
2017-01-01T02:46:27.330Z,22
2017-01-01T02:47:07.917Z,22.02
2017-01-01T02:47:48.512Z,21.92
2017-01-01T02:48:29.114Z,21.96
2017-01-01T02:49:09.722Z,21.96
2017-01-01T02:49:50.311Z,22
2017-01-01T02:50:30.901Z,21.94
2017-01-01T02:51:11.492Z,21.91
2017-01-01T02:51:52.081Z,21.98
2017-01-01T02:52:32.658Z,21.99
2017-01-01T02:53:13.262Z,21.96
2017-01-01T02:53:53.857Z,21.99
2017-01-01T02:54:34.441Z,21.92
2017-01-01T02:55:15.037Z,21.98
2017-01-01T02:55:55.621Z,21.96
2017-01-01T02:56:36.198Z,22.02
2017-01-01T02:57:16.773Z,21.98
2017-01-01T02:57:57.359Z,21.94
2017-01-01T02:58:37.948Z,21.96
2017-01-01T02:59:18.528Z,21.96
2017-01-01T02:59:59.113Z,21.99
2017-01-01T03:00:39.718Z,22
2017-01-01T03:01:20.299Z,22.02
2017-01-01T03:02:00.881Z,21.96
2017-01-01T03:02:41.482Z,21.92
2017-01-01T03:03:22.078Z,21.99
2017-01-01T03:04:02.662Z,21.96
2017-01-01T03:04:43.273Z,21.94
2017-01-01T03:05:23.879Z,21.98
2017-01-01T03:06:04.465Z,21.98
2017-01-01T03:06:45.047Z,21.99
2017-01-01T03:07:25.632Z,21.94
2017-01-01T03:08:06.221Z,21.99
2017-01-01T03:08:46.817Z,21.99
2017-01-01T03:09:27.396Z,21.88
2017-01-01T03:10:07.984Z,21.98
2017-01-01T03:10:48.576Z,22
2017-01-01T03:11:29.165Z,21.91
2017-01-01T03:12:09.777Z,21.9
2017-01-01T03:12:50.370Z,21.86
2017-01-01T03:13:30.959Z,21.96
2017-01-01T03:14:11.539Z,21.96
2017-01-01T03:14:52.137Z,21.99
2017-01-01T03:15:32.755Z,22
2017-01-01T03:16:13.351Z,21.99
2017-01-01T03:16:53.953Z,21.99
2017-01-01T03:17:34.540Z,22.02
2017-01-01T03:18:15.121Z,21.94
2017-01-01T03:18:55.706Z,21.94
2017-01-01T03:19:36.304Z,21.96
2017-01-01T03:20:16.875Z,21.98
2017-01-01T03:20:57.464Z,21.94
2017-01-01T03:21:38.051Z,21.94
2017-01-01T03:22:18.627Z,21.96
2017-01-01T03:22:59.205Z,21.91
2017-01-01T03:23:39.790Z,21.92
2017-01-01T03:24:20.366Z,21.96
2017-01-01T03:25:00.957Z,21.99
2017-01-01T03:25:41.545Z,21.99
2017-01-01T03:26:22.144Z,22.05
2017-01-01T03:27:02.726Z,21.99
2017-01-01T03:27:43.309Z,21.9
2017-01-01T03:28:23.889Z,21.91
2017-01-01T03:29:04.469Z,21.98
2017-01-01T03:29:45.049Z,21.94
2017-01-01T03:30:25.625Z,21.94
2017-01-01T03:31:06.210Z,21.96
2017-01-01T03:31:46.809Z,21.9
2017-01-01T03:32:27.419Z,21.94
2017-01-01T03:33:08.036Z,21.88
2017-01-01T03:33:48.627Z,22.02
2017-01-01T03:34:29.206Z,21.98
2017-01-01T03:35:09.783Z,21.86
2017-01-01T03:35:50.377Z,21.98
2017-01-01T03:36:30.962Z,21.91
2017-01-01T03:37:11.558Z,21.98
2017-01-01T03:37:52.141Z,21.96
2017-01-01T03:38:32.719Z,21.98
2017-01-01T03:39:13.297Z,21.96
2017-01-01T03:39:53.881Z,21.96
2017-01-01T03:40:34.465Z,21.86
2017-01-01T03:41:15.046Z,21.96
2017-01-01T03:41:55.659Z,21.99
2017-01-01T03:42:36.251Z,21.98
2017-01-01T03:43:16.834Z,22.02
2017-01-01T03:43:57.431Z,21.91
2017-01-01T03:44:38.006Z,21.88
2017-01-01T03:45:18.587Z,21.98
2017-01-01T03:45:59.174Z,21.98
2017-01-01T03:46:39.765Z,21.88
2017-01-01T03:47:20.345Z,21.92
2017-01-01T03:48:00.938Z,21.91
2017-01-01T03:48:41.543Z,21.9
2017-01-01T03:49:22.133Z,21.9
2017-01-01T03:50:02.725Z,21.91
2017-01-01T03:50:43.312Z,21.88
2017-01-01T03:51:23.900Z,21.9
2017-01-01T03:52:04.488Z,21.86
2017-01-01T03:52:45.098Z,21.92
2017-01-01T03:53:25.708Z,21.96
2017-01-01T03:54:06.306Z,21.91
2017-01-01T03:54:46.909Z,21.83
2017-01-01T03:55:27.507Z,21.88
2017-01-01T03:56:08.135Z,21.86
2017-01-01T03:56:48.730Z,22.02
2017-01-01T03:57:29.321Z,21.9
2017-01-01T03:58:09.924Z,22
2017-01-01T03:58:50.519Z,21.9
2017-01-01T03:59:31.110Z,21.92
2017-01-01T04:00:11.701Z,22.03
2017-01-01T04:00:52.294Z,21.92
2017-01-01T04:01:32.888Z,21.98
2017-01-01T04:02:13.494Z,21.96
2017-01-01T04:02:54.094Z,21.88
2017-01-01T04:03:34.700Z,21.91
2017-01-01T04:04:15.299Z,21.99
2017-01-01T04:04:55.902Z,21.99
2017-01-01T04:05:36.503Z,22.02
2017-01-01T04:06:17.095Z,21.83
2017-01-01T04:06:57.677Z,22
2017-01-01T04:07:38.252Z,21.98
2017-01-01T04:08:18.844Z,21.88
2017-01-01T04:08:59.436Z,21.96
2017-01-01T04:09:40.013Z,21.84
2017-01-01T04:10:20.610Z,21.99
2017-01-01T04:11:01.188Z,21.96
2017-01-01T04:11:41.772Z,21.83
2017-01-01T04:12:22.351Z,21.9
2017-01-01T04:13:02.945Z,21.9
2017-01-01T04:13:43.531Z,21.9
2017-01-01T04:14:24.119Z,21.91
2017-01-01T04:15:04.705Z,21.84
2017-01-01T04:15:45.286Z,21.82
2017-01-01T04:16:25.867Z,21.86
2017-01-01T04:17:06.461Z,21.8
2017-01-01T04:17:47.050Z,21.83
2017-01-01T04:18:27.628Z,21.9
2017-01-01T04:19:08.212Z,21.96
2017-01-01T04:19:48.795Z,21.92
2017-01-01T04:20:29.380Z,21.91
2017-01-01T04:21:09.960Z,21.98
2017-01-01T04:21:50.541Z,21.84
2017-01-01T04:22:31.132Z,21.96
2017-01-01T04:23:11.712Z,21.98
2017-01-01T04:23:52.292Z,21.92
2017-01-01T04:24:32.911Z,21.84
2017-01-01T04:25:13.500Z,21.91
2017-01-01T04:25:54.082Z,21.9
2017-01-01T04:26:34.658Z,21.9
2017-01-01T04:27:15.255Z,21.99
2017-01-01T04:27:55.843Z,21.79
2017-01-01T04:28:36.426Z,21.92
2017-01-01T04:29:17.010Z,21.9
2017-01-01T04:29:57.603Z,21.98
2017-01-01T04:30:38.196Z,21.91
2017-01-01T04:31:18.796Z,21.92
2017-01-01T04:31:59.388Z,21.91
2017-01-01T04:32:39.980Z,21.83
2017-01-01T04:33:20.573Z,21.86
2017-01-01T04:34:01.167Z,21.86
2017-01-01T04:34:41.765Z,21.91
2017-01-01T04:35:22.359Z,21.84
2017-01-01T04:36:02.997Z,21.94
2017-01-01T04:36:43.620Z,21.92
2017-01-01T04:37:24.209Z,21.99
2017-01-01T04:38:04.824Z,21.88
2017-01-01T04:38:45.419Z,21.84
2017-01-01T04:39:26.026Z,21.92
2017-01-01T04:40:06.623Z,21.94
2017-01-01T04:40:47.210Z,21.9
2017-01-01T04:41:27.798Z,21.96
2017-01-01T04:42:08.399Z,21.96
2017-01-01T04:42:48.977Z,21.96
2017-01-01T04:43:29.553Z,21.98
2017-01-01T04:44:10.142Z,21.91
2017-01-01T04:44:50.725Z,21.96
2017-01-01T04:45:31.325Z,21.83
2017-01-01T04:46:11.924Z,21.96
2017-01-01T04:46:52.516Z,21.8
2017-01-01T04:47:33.092Z,21.9
2017-01-01T04:48:13.710Z,21.9
2017-01-01T04:48:54.311Z,21.88
2017-01-01T04:49:34.898Z,21.8
2017-01-01T04:50:15.500Z,21.82
2017-01-01T04:50:56.078Z,21.84
2017-01-01T04:51:36.670Z,21.9
2017-01-01T04:52:17.259Z,21.82
2017-01-01T04:52:57.861Z,21.94
2017-01-01T04:53:38.458Z,21.94
2017-01-01T04:54:19.048Z,21.94
2017-01-01T04:54:59.640Z,21.91
2017-01-01T04:55:40.229Z,21.94
2017-01-01T04:56:20.833Z,21.91
2017-01-01T04:57:01.416Z,21.82
2017-01-01T04:57:42.016Z,21.96
2017-01-01T04:58:22.598Z,21.88
2017-01-01T04:59:03.183Z,21.9
2017-01-01T04:59:43.776Z,21.94
2017-01-01T05:00:24.376Z,21.88
2017-01-01T05:01:04.952Z,21.92
2017-01-01T05:01:45.548Z,21.83
2017-01-01T05:02:26.128Z,21.8
2017-01-01T05:03:06.707Z,21.8
2017-01-01T05:03:47.290Z,21.83
2017-01-01T05:04:27.871Z,21.91
2017-01-01T05:05:08.450Z,21.86
2017-01-01T05:05:49.031Z,21.84
2017-01-01T05:06:29.623Z,21.86
2017-01-01T05:07:10.216Z,21.82
2017-01-01T05:07:50.801Z,21.83
2017-01-01T05:08:31.372Z,21.84
2017-01-01T05:09:11.959Z,21.9
2017-01-01T05:09:52.551Z,21.92
2017-01-01T05:10:33.135Z,21.94
2017-01-01T05:11:13.724Z,21.86
2017-01-01T05:11:54.306Z,21.9
2017-01-01T05:12:34.904Z,21.83
2017-01-01T05:13:15.505Z,21.86
2017-01-01T05:13:56.079Z,21.79
2017-01-01T05:14:36.677Z,21.91
2017-01-01T05:15:17.292Z,21.82
2017-01-01T05:15:57.875Z,21.8
2017-01-01T05:16:38.463Z,21.92
2017-01-01T05:17:19.057Z,21.82
2017-01-01T05:17:59.640Z,21.86
2017-01-01T05:18:40.234Z,21.91
2017-01-01T05:19:20.809Z,21.79
2017-01-01T05:20:01.388Z,21.83
2017-01-01T05:20:41.983Z,21.86
2017-01-01T05:21:22.557Z,21.91
2017-01-01T05:22:03.155Z,21.83
2017-01-01T05:22:43.730Z,21.86
2017-01-01T05:23:24.323Z,21.91
2017-01-01T05:24:04.903Z,21.88
2017-01-01T05:24:45.484Z,21.88
2017-01-01T05:25:26.066Z,21.83
2017-01-01T05:26:06.654Z,21.9
2017-01-01T05:26:47.255Z,21.84
2017-01-01T05:27:27.842Z,21.94
2017-01-01T05:28:08.427Z,21.94
2017-01-01T05:28:49.020Z,21.8
2017-01-01T05:29:29.610Z,21.92
2017-01-01T05:30:10.201Z,21.86
2017-01-01T05:30:50.803Z,21.83
2017-01-01T05:31:31.386Z,21.86
2017-01-01T05:32:11.964Z,21.86
2017-01-01T05:32:52.549Z,21.77
2017-01-01T05:33:33.126Z,21.83
2017-01-01T05:34:13.709Z,21.88
2017-01-01T05:34:54.316Z,21.88
2017-01-01T05:35:34.914Z,21.83
2017-01-01T05:36:15.491Z,21.88
2017-01-01T05:36:56.086Z,21.83
2017-01-01T05:37:36.676Z,21.91
2017-01-01T05:38:17.285Z,21.91
2017-01-01T05:38:57.861Z,21.88
2017-01-01T05:39:38.440Z,21.88
2017-01-01T05:40:19.019Z,21.91
2017-01-01T05:40:59.603Z,21.79
2017-01-01T05:41:40.219Z,21.88
2017-01-01T05:42:20.798Z,21.88
2017-01-01T05:43:01.414Z,21.79
2017-01-01T05:43:42.000Z,21.84
2017-01-01T05:44:22.603Z,21.9
2017-01-01T05:45:03.228Z,21.86
2017-01-01T05:45:43.817Z,21.86
2017-01-01T05:46:24.416Z,21.84
2017-01-01T05:47:04.996Z,21.82
2017-01-01T05:47:45.575Z,21.8
2017-01-01T05:48:26.154Z,21.82
2017-01-01T05:49:06.752Z,21.84
2017-01-01T05:49:47.339Z,21.86
2017-01-01T05:50:27.918Z,21.9
2017-01-01T05:51:08.498Z,21.88
2017-01-01T05:51:49.093Z,21.83
2017-01-01T05:52:29.682Z,21.88
2017-01-01T05:53:10.280Z,21.84
2017-01-01T05:53:50.877Z,21.88
2017-01-01T05:54:31.465Z,21.79
2017-01-01T05:55:12.069Z,21.83
2017-01-01T05:55:52.663Z,21.88
2017-01-01T05:56:33.251Z,21.75
2017-01-01T05:57:13.841Z,21.9
2017-01-01T05:57:54.449Z,21.79
2017-01-01T05:58:35.045Z,21.88
2017-01-01T05:59:15.627Z,21.79
2017-01-01T05:59:56.207Z,21.88
2017-01-01T06:00:36.803Z,21.79
2017-01-01T06:01:17.401Z,21.77
2017-01-01T06:01:57.984Z,21.77
2017-01-01T06:02:38.573Z,21.88
2017-01-01T06:03:19.156Z,21.8
2017-01-01T06:03:59.738Z,21.8
2017-01-01T06:04:40.319Z,21.8
2017-01-01T06:05:20.906Z,21.83
2017-01-01T06:06:01.497Z,21.82
2017-01-01T06:06:42.122Z,21.79
2017-01-01T06:07:22.701Z,21.82
2017-01-01T06:08:03.280Z,21.82
2017-01-01T06:08:43.860Z,21.83
2017-01-01T06:09:24.447Z,21.74
2017-01-01T06:10:05.029Z,21.8
2017-01-01T06:10:45.624Z,21.86
2017-01-01T06:11:26.220Z,21.83
2017-01-01T06:12:06.835Z,21.86
2017-01-01T06:12:47.427Z,21.83
2017-01-01T06:13:28.024Z,21.84
2017-01-01T06:14:08.610Z,21.82
2017-01-01T06:14:49.191Z,21.82
2017-01-01T06:15:29.793Z,21.82
2017-01-01T06:16:10.386Z,21.77
2017-01-01T06:16:50.984Z,21.74
2017-01-01T06:17:31.572Z,21.8
2017-01-01T06:18:12.199Z,21.79
2017-01-01T06:18:52.789Z,21.77
2017-01-01T06:19:33.386Z,21.74
2017-01-01T06:20:13.977Z,21.74
2017-01-01T06:20:54.558Z,21.75
2017-01-01T06:21:35.141Z,21.83
2017-01-01T06:22:15.753Z,21.77
2017-01-01T06:22:56.367Z,21.8
2017-01-01T06:23:36.964Z,21.82
2017-01-01T06:24:17.546Z,21.8
2017-01-01T06:24:58.161Z,21.75
2017-01-01T06:25:38.776Z,21.75
2017-01-01T06:26:19.369Z,21.84
2017-01-01T06:26:59.979Z,21.77
2017-01-01T06:27:40.576Z,21.8
2017-01-01T06:28:21.161Z,21.84
2017-01-01T06:29:01.744Z,21.75
2017-01-01T06:29:42.329Z,21.79
2017-01-01T06:30:22.911Z,21.79
2017-01-01T06:31:03.502Z,21.83
2017-01-01T06:31:44.081Z,21.82
2017-01-01T06:32:24.662Z,21.79
2017-01-01T06:33:05.258Z,21.79
2017-01-01T06:33:45.864Z,21.77
2017-01-01T06:34:26.459Z,21.82
2017-01-01T06:35:07.024Z,21.83
2017-01-01T06:35:47.617Z,21.8
2017-01-01T06:36:28.216Z,21.79
2017-01-01T06:37:08.815Z,21.79
2017-01-01T06:37:49.405Z,21.72
2017-01-01T06:38:29.999Z,21.74
2017-01-01T06:39:10.596Z,21.82
2017-01-01T06:39:51.188Z,21.83
2017-01-01T06:40:31.769Z,21.8
2017-01-01T06:41:12.363Z,21.77
2017-01-01T06:41:52.948Z,21.83
2017-01-01T06:42:33.536Z,21.8
2017-01-01T06:43:14.117Z,21.74
2017-01-01T06:43:54.704Z,21.74
2017-01-01T06:44:35.306Z,21.72
2017-01-01T06:45:15.898Z,21.77
2017-01-01T06:45:56.495Z,21.8
2017-01-01T06:46:37.101Z,21.83
2017-01-01T06:47:17.717Z,21.77
2017-01-01T06:47:58.305Z,21.71
2017-01-01T06:48:38.891Z,21.8
2017-01-01T06:49:19.502Z,21.79
2017-01-01T06:50:00.082Z,21.77
2017-01-01T06:50:40.666Z,21.8
2017-01-01T06:51:21.256Z,21.77
2017-01-01T06:52:01.835Z,21.84
2017-01-01T06:52:42.420Z,21.79
2017-01-01T06:53:23.008Z,21.75
2017-01-01T06:54:03.591Z,21.8
2017-01-01T06:54:44.186Z,21.83
2017-01-01T06:55:24.775Z,21.84
2017-01-01T06:56:05.367Z,21.75
2017-01-01T06:56:45.980Z,21.83
2017-01-01T06:57:26.574Z,21.8
2017-01-01T06:58:07.145Z,21.79
2017-01-01T06:58:47.737Z,21.82
2017-01-01T06:59:28.331Z,21.79
2017-01-01T07:00:08.940Z,21.74
2017-01-01T07:00:49.530Z,21.79
2017-01-01T07:01:30.119Z,21.77
2017-01-01T07:02:10.705Z,21.82
2017-01-01T07:02:51.281Z,21.83
2017-01-01T07:03:31.870Z,21.75
2017-01-01T07:04:12.450Z,21.8
2017-01-01T07:04:53.042Z,21.74
2017-01-01T07:05:33.635Z,21.74
2017-01-01T07:06:14.225Z,21.72
2017-01-01T07:06:54.816Z,21.71
2017-01-01T07:07:35.398Z,21.72
2017-01-01T07:08:15.986Z,21.71
2017-01-01T07:08:56.582Z,21.71
2017-01-01T07:09:37.173Z,21.74
2017-01-01T07:10:17.765Z,21.71
2017-01-01T07:10:58.355Z,21.79
2017-01-01T07:11:38.942Z,21.77
2017-01-01T07:12:19.521Z,21.77
2017-01-01T07:13:00.108Z,21.8
2017-01-01T07:13:40.711Z,21.77
2017-01-01T07:14:21.305Z,21.79
2017-01-01T07:15:01.891Z,21.75
2017-01-01T07:15:42.479Z,21.74
2017-01-01T07:16:23.072Z,21.77
2017-01-01T07:17:03.677Z,21.77
2017-01-01T07:17:44.275Z,21.77
2017-01-01T07:18:24.860Z,21.69
2017-01-01T07:19:05.471Z,21.75
2017-01-01T07:19:46.065Z,21.72
2017-01-01T07:20:26.679Z,21.72
2017-01-01T07:21:07.278Z,21.75
2017-01-01T07:21:47.861Z,21.71
2017-01-01T07:22:28.462Z,21.84
2017-01-01T07:23:09.059Z,21.77
2017-01-01T07:23:49.647Z,21.75
2017-01-01T07:24:30.237Z,21.74
2017-01-01T07:25:10.841Z,21.8
2017-01-01T07:25:51.454Z,21.72
2017-01-01T07:26:32.042Z,21.79
2017-01-01T07:27:12.637Z,21.72
2017-01-01T07:27:53.247Z,21.72
2017-01-01T07:28:33.841Z,21.79
2017-01-01T07:29:14.436Z,21.79
2017-01-01T07:29:55.014Z,21.8
2017-01-01T07:30:35.608Z,21.77
2017-01-01T07:31:16.230Z,21.74
2017-01-01T07:31:56.808Z,21.83
2017-01-01T07:32:37.389Z,21.79
2017-01-01T07:33:17.976Z,21.79
2017-01-01T07:33:58.583Z,21.8
2017-01-01T07:34:39.163Z,21.69
2017-01-01T07:35:19.740Z,21.77
2017-01-01T07:36:00.322Z,21.75
2017-01-01T07:36:40.923Z,21.79
2017-01-01T07:37:21.547Z,21.79
2017-01-01T07:38:02.135Z,21.75
2017-01-01T07:38:42.731Z,21.83
2017-01-01T07:39:23.326Z,21.82
2017-01-01T07:40:03.928Z,21.77
2017-01-01T07:40:44.522Z,21.8
2017-01-01T07:41:25.099Z,21.79
2017-01-01T07:42:05.692Z,21.71
2017-01-01T07:42:46.256Z,21.79
2017-01-01T07:43:26.846Z,21.79
2017-01-01T07:44:07.443Z,21.77
2017-01-01T07:44:48.056Z,21.8
2017-01-01T07:45:28.639Z,21.8
2017-01-01T07:46:09.221Z,21.8
2017-01-01T07:46:49.805Z,21.8
2017-01-01T07:47:30.386Z,21.8
2017-01-01T07:48:10.994Z,21.74
2017-01-01T07:48:51.582Z,21.77
2017-01-01T07:49:32.169Z,21.74
2017-01-01T07:50:12.759Z,21.69
2017-01-01T07:50:53.349Z,21.8
2017-01-01T07:51:33.939Z,21.77
2017-01-01T07:52:14.543Z,21.75
2017-01-01T07:52:55.148Z,21.77
2017-01-01T07:53:35.729Z,21.74
2017-01-01T07:54:16.320Z,21.79
2017-01-01T07:54:56.911Z,21.77
2017-01-01T07:55:37.501Z,21.79
2017-01-01T07:56:18.080Z,21.82
2017-01-01T07:56:58.659Z,21.77
2017-01-01T07:57:39.243Z,21.79
2017-01-01T07:58:19.835Z,21.8
2017-01-01T07:59:00.438Z,21.83
2017-01-01T07:59:41.020Z,21.84
2017-01-01T08:00:21.612Z,21.79
2017-01-01T08:01:02.198Z,21.77
2017-01-01T08:01:42.776Z,21.82
2017-01-01T08:02:23.364Z,21.8
2017-01-01T08:03:03.947Z,21.84
2017-01-01T08:03:44.526Z,21.82
2017-01-01T08:04:25.124Z,21.82
2017-01-01T08:05:05.703Z,21.8
2017-01-01T08:05:46.310Z,21.86
2017-01-01T08:06:26.903Z,21.8
2017-01-01T08:07:07.487Z,21.9
2017-01-01T08:07:48.065Z,21.8
2017-01-01T08:08:28.676Z,21.79
2017-01-01T08:09:09.277Z,21.75
2017-01-01T08:09:49.868Z,21.84
2017-01-01T08:10:30.442Z,21.84
2017-01-01T08:11:11.030Z,21.84
2017-01-01T08:11:51.598Z,21.82
2017-01-01T08:12:32.183Z,21.8
2017-01-01T08:13:12.784Z,21.9
2017-01-01T08:13:53.374Z,21.9
2017-01-01T08:14:33.962Z,21.74
2017-01-01T08:15:14.589Z,21.83
2017-01-01T08:15:55.173Z,21.86
2017-01-01T08:16:35.789Z,21.84
2017-01-01T08:17:16.380Z,21.88
2017-01-01T08:17:56.977Z,21.86
2017-01-01T08:18:37.608Z,21.94
2017-01-01T08:19:18.204Z,21.86
2017-01-01T08:19:58.798Z,21.8
2017-01-01T08:20:39.405Z,21.88
2017-01-01T08:21:20.008Z,21.88
2017-01-01T08:22:00.605Z,21.82
2017-01-01T08:22:41.195Z,21.94
2017-01-01T08:23:21.795Z,21.84
2017-01-01T08:24:02.410Z,21.86
2017-01-01T08:24:42.975Z,21.86
2017-01-01T08:25:23.566Z,21.96
2017-01-01T08:26:04.154Z,21.82
2017-01-01T08:26:44.765Z,21.96
2017-01-01T08:27:25.366Z,21.8
2017-01-01T08:28:05.968Z,21.88
2017-01-01T08:28:46.569Z,21.94
2017-01-01T08:29:27.154Z,21.94
2017-01-01T08:30:07.736Z,21.83
2017-01-01T08:30:48.317Z,21.83
2017-01-01T08:31:28.909Z,21.88
2017-01-01T08:32:09.529Z,21.83
2017-01-01T08:32:50.121Z,21.92
2017-01-01T08:33:30.736Z,21.98
2017-01-01T08:34:11.329Z,21.92
2017-01-01T08:34:51.915Z,21.98
2017-01-01T08:35:32.495Z,21.86
2017-01-01T08:36:13.088Z,21.99
2017-01-01T08:36:53.672Z,21.9
2017-01-01T08:37:34.256Z,21.86
2017-01-01T08:38:14.836Z,21.98
2017-01-01T08:38:55.424Z,21.92
2017-01-01T08:39:36.034Z,22
2017-01-01T08:40:16.642Z,21.99
2017-01-01T08:40:57.232Z,21.91
2017-01-01T08:41:37.848Z,21.96
2017-01-01T08:42:18.441Z,22.02
2017-01-01T08:42:59.026Z,21.99
2017-01-01T08:43:39.606Z,21.98
2017-01-01T08:44:20.189Z,21.92
2017-01-01T08:45:00.770Z,22
2017-01-01T08:45:41.367Z,21.94
2017-01-01T08:46:21.953Z,21.98